Time;durP1;ratioP1;P1;durP2;ratioP2;P2;SDS_P1;SDS_P2;PMS_P1;PMS_P2;Temp;Humidity;BMP_temperature;BMP_pressure;BME280_temperature;BME280_humidity;BME280_pressure;Samples;Min_cycle;Max_cycle;Signal;HPM_P1;HPM_P2
2021/04/07 00:00:10;;;;;;;1999.90;999.90;;;0.40;99.90;;;;;;5035808;28;20208;-69
2021/04/07 00:02:36;;;;;;;1999.90;999.90;;;0.40;99.90;;;;;;5035850;28;20179;-69
2021/04/07 00:05:08;;;;;;;1999.90;999.90;;;0.40;99.90;;;;;;5035331;28;20407;-69
2021/04/07 00:07:33;;;;;;;1999.90;999.90;;;0.50;99.90;;;;;;5035540;28;20846;-69
2021/04/07 00:10:00;;;;;;;1999.90;999.90;;;0.50;99.90;;;;;;5035570;28;20180;-70
2021/04/07 00:12:25;;;;;;;1999.90;999.90;;;0.60;99.90;;;;;;5035548;28;20641;-69
2021/04/07 00:14:51;;;;;;;1999.90;999.90;;;0.60;99.90;;;;;;5035268;28;20176;-70
2021/04/07 00:17:16;;;;;;;1999.90;999.90;;;0.60;99.90;;;;;;5035311;28;20285;-69
2021/04/07 00:19:42;;;;;;;1999.90;999.90;;;0.50;99.90;;;;;;5035435;28;20169;-70
2021/04/07 00:22:07;;;;;;;1999.90;999.90;;;0.50;99.90;;;;;;5035286;28;20183;-69
2021/04/07 00:24:33;;;;;;;1999.90;999.90;;;0.50;99.90;;;;;;5035354;28;20175;-70
2021/04/07 00:27:05;;;;;;;1999.90;999.90;;;0.60;99.90;;;;;;5034983;28;20271;-70
2021/04/07 00:29:31;;;;;;;1999.90;999.90;;;0.50;99.90;;;;;;5035436;28;20184;-71
2021/04/07 00:31:56;;;;;;;1999.90;999.90;;;0.50;99.90;;;;;;5035228;28;20191;-70
2021/04/07 00:34:22;;;;;;;1999.90;999.90;;;0.50;99.90;;;;;;5035033;28;20218;-68
2021/04/07 00:36:47;;;;;;;1999.90;999.90;;;0.50;99.90;;;;;;5034653;28;20688;-70
2021/04/07 00:39:13;;;;;;;1999.90;999.90;;;0.40;99.90;;;;;;5035069;28;20234;-67
2021/04/07 00:41:39;;;;;;;1999.90;999.90;;;0.40;99.90;;;;;;5035021;28;20175;-68
2021/04/07 00:44:04;;;;;;;1999.90;999.90;;;0.40;99.90;;;;;;5034931;28;20196;-68
2021/04/07 00:46:35;;;;;;;1999.90;999.90;;;0.40;99.90;;;;;;5034603;28;20238;-68
2021/04/07 00:49:00;;;;;;;1999.90;999.90;;;0.30;99.90;;;;;;5034833;28;20633;-68
2021/04/07 00:51:26;;;;;;;1999.90;999.90;;;0.30;99.90;;;;;;5034763;28;20181;-68
2021/04/07 00:53:52;;;;;;;1999.90;999.90;;;0.30;99.90;;;;;;5034814;28;20183;-68
2021/04/07 00:56:18;;;;;;;1999.90;999.90;;;0.30;99.90;;;;;;5034352;28;20185;-68
2021/04/07 00:58:43;;;;;;;1999.90;999.90;;;0.30;99.90;;;;;;5034620;28;20200;-68
2021/04/07 01:01:09;;;;;;;1999.90;999.90;;;0.30;99.90;;;;;;5034693;28;20414;-69
2021/04/07 01:03:35;;;;;;;1999.90;999.90;;;0.30;99.90;;;;;;5034388;28;20630;-68
2021/04/07 01:06:01;;;;;;;1999.90;999.90;;;0.30;99.90;;;;;;5034085;28;20669;-68
2021/04/07 01:08:27;;;;;;;1999.90;999.90;;;0.40;99.90;;;;;;5034697;28;20540;-68
2021/04/07 01:10:52;;;;;;;1999.90;999.90;;;0.40;99.90;;;;;;5034537;28;20176;-69
2021/04/07 01:13:18;;;;;;;1999.90;999.90;;;0.40;99.90;;;;;;5034537;28;20180;-68
2021/04/07 01:15:44;;;;;;;1999.90;999.90;;;0.40;99.90;;;;;;5034145;28;20196;-68
2021/04/07 01:18:09;;;;;;;1999.90;999.90;;;0.40;99.90;;;;;;5034085;28;20192;-68
2021/04/07 01:20:35;;;;;;;1999.90;999.90;;;0.30;99.90;;;;;;5034264;28;20167;-69
2021/04/07 01:23:03;;;;;;;1999.90;999.90;;;0.30;99.90;;;;;;5034306;28;20496;-70
2021/04/07 01:25:29;;;;;;;1999.90;999.90;;;0.30;99.90;;;;;;5034021;28;20181;-70
2021/04/07 01:27:56;;;;;;;1999.90;999.90;;;0.30;99.90;;;;;;5034081;28;20219;-68
2021/04/07 01:30:23;;;;;;;1999.90;999.90;;;0.30;99.90;;;;;;5034171;28;20165;-70
2021/04/07 01:32:49;;;;;;;1999.90;999.90;;;0.40;99.90;;;;;;5034024;28;20180;-70
2021/04/07 01:35:16;;;;;;;1999.90;999.90;;;0.40;99.90;;;;;;5033791;28;20279;-70
2021/04/07 01:37:42;;;;;;;1999.90;999.90;;;0.40;99.90;;;;;;5033859;28;20497;-69
2021/04/07 01:40:10;;;;;;;1999.90;999.90;;;0.50;99.90;;;;;;5033932;28;20740;-68
2021/04/07 01:42:36;;;;;;;1999.90;999.90;;;0.50;99.90;;;;;;5033951;28;20539;-68
2021/04/07 01:45:04;;;;;;;1999.90;999.90;;;0.50;99.90;;;;;;5033708;28;20234;-68
2021/04/07 01:47:31;;;;;;;1999.90;999.90;;;0.50;99.90;;;;;;5033542;28;20246;-67
2021/04/07 01:49:59;;;;;;;1999.90;999.90;;;0.50;99.90;;;;;;5033982;28;20172;-69
2021/04/07 01:52:25;;;;;;;1999.90;999.90;;;0.60;99.90;;;;;;5033746;28;20171;-70
2021/04/07 01:54:51;;;;;;;1999.90;999.90;;;0.50;99.90;;;;;;5033413;28;20180;-70
2021/04/07 01:57:16;;;;;;;1999.90;999.90;;;0.50;99.90;;;;;;5033457;28;20225;-69
2021/04/07 01:59:42;;;;;;;1999.90;999.90;;;0.50;99.90;;;;;;5033598;28;20171;-68
2021/04/07 02:02:08;;;;;;;1999.90;999.90;;;0.50;99.90;;;;;;5033463;28;20168;-68
2021/04/07 02:04:33;;;;;;;1999.90;999.90;;;0.50;99.90;;;;;;5033448;28;20164;-68
2021/04/07 02:07:07;;;;;;;1999.90;999.90;;;0.50;99.90;;;;;;5032977;28;20287;-68
2021/04/07 02:09:32;;;;;;;1999.90;999.90;;;0.40;99.90;;;;;;5033358;28;20226;-68
2021/04/07 02:11:58;;;;;;;1999.90;999.90;;;0.50;99.90;;;;;;5033426;28;20184;-69
2021/04/07 02:14:25;;;;;;;1999.90;999.90;;;0.50;99.90;;;;;;5033228;28;20173;-68
2021/04/07 02:16:55;;;;;;;1999.90;999.90;;;0.50;99.90;;;;;;5032147;28;20199;-68
2021/04/07 02:19:22;;;;;;;1999.90;999.90;;;0.50;99.90;;;;;;5033152;28;20179;-68
2021/04/07 02:21:55;;;;;;;1999.90;999.90;;;0.50;99.90;;;;;;5033159;28;20184;-68
2021/04/07 02:24:21;;;;;;;1999.90;999.90;;;0.50;99.90;;;;;;5033139;28;20242;-68
2021/04/07 02:26:46;;;;;;;1999.90;999.90;;;0.50;99.90;;;;;;5032712;28;20673;-68
2021/04/07 02:29:12;;;;;;;1999.90;999.90;;;0.50;99.90;;;;;;5033001;28;20195;-68
2021/04/07 02:31:38;;;;;;;1999.90;999.90;;;0.60;99.90;;;;;;5033122;28;20165;-68
2021/04/07 02:34:04;;;;;;;1999.90;999.90;;;0.60;99.90;;;;;;5032851;28;20412;-68
2021/04/07 02:36:29;;;;;;;1999.90;999.90;;;0.60;99.90;;;;;;5032410;28;20418;-69
2021/04/07 02:38:55;;;;;;;1999.90;999.90;;;0.60;99.90;;;;;;5032857;28;20168;-68
2021/04/07 02:41:21;;;;;;;1999.90;999.90;;;0.60;99.90;;;;;;5032804;28;20618;-68
2021/04/07 02:43:46;;;;;;;1999.90;999.90;;;0.60;99.90;;;;;;5032703;28;20242;-68
2021/04/07 02:46:12;;;;;;;1999.90;999.90;;;0.60;99.90;;;;;;5032301;28;20654;-67
2021/04/07 02:48:37;;;;;;;1999.90;999.90;;;0.60;99.90;;;;;;5032604;28;20172;-68
2021/04/07 02:51:03;;;;;;;1999.90;999.90;;;0.60;99.90;;;;;;5032627;28;20176;-68
2021/04/07 02:53:28;;;;;;;1999.90;999.90;;;0.60;99.90;;;;;;5032605;28;20642;-67
2021/04/07 02:55:54;;;;;;;1999.90;999.90;;;0.60;99.90;;;;;;5032140;28;20171;-68
2021/04/07 02:58:20;;;;;;;1999.90;999.90;;;0.50;99.90;;;;;;5032338;28;20230;-68
2021/04/07 03:00:45;;;;;;;1999.90;999.90;;;0.50;99.90;;;;;;5032437;28;20168;-68
2021/04/07 03:03:11;;;;;;;1999.90;999.90;;;0.50;99.90;;;;;;5032411;28;20823;-68
2021/04/07 03:05:36;;;;;;;1999.90;999.90;;;0.50;99.90;;;;;;5032058;28;20168;-68
2021/04/07 03:08:02;;;;;;;1999.90;999.90;;;0.50;99.90;;;;;;5032188;28;20211;-68
2021/04/07 03:10:27;;;;;;;1999.90;999.90;;;0.50;99.90;;;;;;5032271;28;20649;-68
2021/04/07 03:12:53;;;;;;;1999.90;999.90;;;0.50;99.90;;;;;;5032227;28;20210;-69
2021/04/07 03:15:19;;;;;;;1999.90;999.90;;;0.50;99.90;;;;;;5031996;28;20664;-68
2021/04/07 03:17:44;;;;;;;1999.90;999.90;;;0.60;99.90;;;;;;5032107;28;20707;-68
2021/04/07 03:20:10;;;;;;;1999.90;999.90;;;0.60;99.90;;;;;;5032159;28;20164;-69
2021/04/07 03:22:36;;;;;;;1999.90;999.90;;;0.50;99.90;;;;;;5032329;28;20673;-70
2021/04/07 03:25:05;;;;;;;1999.90;999.90;;;0.60;99.90;;;;;;5031870;28;20226;-69
2021/04/07 03:27:30;;;;;;;1999.90;999.90;;;0.60;99.90;;;;;;5030931;28;20200;-69
2021/04/07 03:29:59;;;;;;;1999.90;999.90;;;0.60;99.90;;;;;;5032012;28;20563;-69
2021/04/07 03:32:26;;;;;;;1999.90;999.90;;;0.60;99.90;;;;;;5031891;28;20689;-68
2021/04/07 03:34:52;;;;;;;1999.90;999.90;;;0.60;99.90;;;;;;5031624;28;20711;-72
2021/04/07 03:37:17;;;;;;;1999.90;999.90;;;0.60;99.90;;;;;;5031837;28;20192;-67
2021/04/07 03:39:43;;;;;;;1999.90;999.90;;;0.60;99.90;;;;;;5031924;28;20168;-68
2021/04/07 03:42:09;;;;;;;1999.90;999.90;;;0.60;99.90;;;;;;5031866;28;20164;-68
2021/04/07 03:44:34;;;;;;;1999.90;999.90;;;0.60;99.90;;;;;;5031839;28;20531;-69
2021/04/07 03:47:00;;;;;;;1999.90;999.90;;;0.60;99.90;;;;;;5031706;28;20192;-69
2021/04/07 03:49:25;;;;;;;1999.90;999.90;;;0.60;99.90;;;;;;5031849;28;20227;-69
2021/04/07 03:51:51;;;;;;;1999.90;999.90;;;0.60;99.90;;;;;;5031839;28;20172;-69
2021/04/07 03:54:17;;;;;;;1999.90;999.90;;;0.70;99.90;;;;;;5031846;28;20176;-69
2021/04/07 03:56:43;;;;;;;1999.90;999.90;;;0.70;99.90;;;;;;5031310;28;20726;-68
2021/04/07 03:59:08;;;;;;;1999.90;999.90;;;0.70;99.90;;;;;;5031729;28;20176;-68
2021/04/07 04:01:34;;;;;;;1999.90;999.90;;;0.70;99.90;;;;;;5031699;28;20164;-68
2021/04/07 04:03:59;;;;;;;1999.90;999.90;;;0.70;99.90;;;;;;5031759;28;20532;-69
2021/04/07 04:06:25;;;;;;;1999.90;999.90;;;0.70;99.90;;;;;;5031661;28;20232;-68
2021/04/07 04:08:51;;;;;;;1999.90;999.90;;;0.70;99.90;;;;;;5031678;28;20708;-67
2021/04/07 04:11:16;;;;;;;1999.90;999.90;;;0.70;99.90;;;;;;5031689;28;20180;-68
2021/04/07 04:13:42;;;;;;;1999.90;999.90;;;0.70;99.90;;;;;;5031557;28;20279;-68
2021/04/07 04:16:07;;;;;;;1999.90;999.90;;;0.60;99.90;;;;;;5031287;28;20214;-68
2021/04/07 04:18:33;;;;;;;1999.90;999.90;;;0.70;99.90;;;;;;5031482;28;20283;-68
2021/04/07 04:20:59;;;;;;;1999.90;999.90;;;0.70;99.90;;;;;;5031541;28;20172;-67
2021/04/07 04:23:24;;;;;;;1999.90;999.90;;;0.70;99.90;;;;;;5031533;28;20165;-68
2021/04/07 04:25:50;;;;;;;1999.90;999.90;;;0.70;99.90;;;;;;5031163;28;20226;-68
2021/04/07 04:28:15;;;;;;;1999.90;999.90;;;0.70;99.90;;;;;;5031411;28;20196;-67
2021/04/07 04:30:41;;;;;;;1999.90;999.90;;;0.70;99.90;;;;;;5031833;28;20169;-67
2021/04/07 04:33:06;;;;;;;1999.90;999.90;;;0.80;99.90;;;;;;5031450;28;20172;-68
2021/04/07 04:35:32;;;;;;;1999.90;999.90;;;0.70;99.90;;;;;;5031182;28;20208;-67
2021/04/07 04:37:58;;;;;;;1999.90;999.90;;;0.70;99.90;;;;;;5031339;28;20673;-67
2021/04/07 04:40:23;;;;;;;1999.90;999.90;;;0.80;99.90;;;;;;5034799;28;20160;-69
2021/04/07 04:42:49;;;;;;;1999.90;999.90;;;0.80;99.90;;;;;;5035030;28;20644;-69
2021/04/07 04:45:15;;;;;;;1999.90;999.90;;;0.80;99.90;;;;;;5034840;28;20251;-69
2021/04/07 04:47:41;;;;;;;1999.90;999.90;;;0.80;99.90;;;;;;5034853;28;20192;-69
2021/04/07 04:50:09;;;;;;;1999.90;999.90;;;0.80;99.90;;;;;;5034915;28;20407;-68
2021/04/07 04:52:34;;;;;;;1999.90;999.90;;;0.80;99.90;;;;;;5034822;28;20172;-68
2021/04/07 04:55:00;;;;;;;1999.90;999.90;;;0.80;99.90;;;;;;5034487;28;20250;-66
2021/04/07 04:57:26;;;;;;;1999.90;999.90;;;0.80;99.90;;;;;;5034571;28;20457;-67
2021/04/07 04:59:51;;;;;;;1999.90;999.90;;;0.80;99.90;;;;;;5034693;28;20173;-67
2021/04/07 05:02:17;;;;;;;1999.90;999.90;;;0.80;99.90;;;;;;5034634;28;20221;-67
2021/04/07 05:04:43;;;;;;;1999.90;999.90;;;0.80;99.90;;;;;;5034425;28;20654;-68
2021/04/07 05:07:08;;;;;;;1999.90;999.90;;;0.80;99.90;;;;;;5034312;28;20212;-67
2021/04/07 05:09:34;;;;;;;1999.90;999.90;;;0.80;99.90;;;;;;5034524;28;20650;-67
2021/04/07 05:12:00;;;;;;;1999.90;999.90;;;0.80;99.90;;;;;;5034646;28;20183;-67
2021/04/07 05:14:25;;;;;;;1999.90;999.90;;;0.80;99.90;;;;;;5034370;28;20183;-67
2021/04/07 05:16:51;;;;;;;1999.90;999.90;;;0.90;99.90;;;;;;5034148;28;20200;-68
2021/04/07 05:19:17;;;;;;;1999.90;999.90;;;0.90;99.90;;;;;;5034473;28;20267;-67
2021/04/07 05:21:42;;;;;;;1999.90;999.90;;;0.90;99.90;;;;;;5034283;28;20560;-67
2021/04/07 05:24:08;;;;;;;1999.90;999.90;;;0.90;99.90;;;;;;5034139;28;20250;-66
2021/04/07 05:26:37;;;;;;;1999.90;999.90;;;0.90;99.90;;;;;;5033783;28;20200;-67
2021/04/07 05:29:04;;;;;;;1999.90;999.90;;;0.90;99.90;;;;;;5034312;28;20239;-66
2021/04/07 05:31:30;;;;;;;1999.90;999.90;;;1.00;99.90;;;;;;5034240;28;20541;-67
2021/04/07 05:33:55;;;;;;;1999.90;999.90;;;1.00;99.90;;;;;;5034022;28;20172;-67
2021/04/07 05:36:21;;;;;;;1999.90;999.90;;;1.00;99.90;;;;;;5033698;28;20195;-66
2021/04/07 05:38:46;;;;;;;1999.90;999.90;;;1.00;99.90;;;;;;5033839;28;20211;-67
2021/04/07 05:41:12;;;;;;;1999.90;999.90;;;1.00;99.90;;;;;;5034169;28;20172;-67
2021/04/07 05:43:39;;;;;;;1999.90;999.90;;;1.00;99.90;;;;;;5033828;28;20232;-68
2021/04/07 05:46:06;;;;;;;1999.90;999.90;;;1.00;99.90;;;;;;5033617;28;20184;-67
2021/04/07 05:48:31;;;;;;;1999.90;999.90;;;1.00;99.90;;;;;;5033922;28;20168;-67
2021/04/07 05:50:57;;;;;;;1999.90;999.90;;;1.00;99.90;;;;;;5032700;28;20309;-67
2021/04/07 05:53:24;;;;;;;1999.90;999.90;;;1.10;99.90;;;;;;5033718;28;20259;-66
2021/04/07 05:55:52;;;;;;;1999.90;999.90;;;1.10;99.90;;;;;;5033364;28;20199;-66
2021/04/07 05:58:18;;;;;;;1999.90;999.90;;;1.10;99.90;;;;;;5033566;28;20197;-65
2021/04/07 06:00:45;;;;;;;1999.90;999.90;;;1.10;99.90;;;;;;5033541;28;20179;-66
2021/04/07 06:03:11;;;;;;;1999.90;999.90;;;1.10;99.90;;;;;;5033533;28;20176;-65
2021/04/07 06:05:41;;;;;;;1999.90;999.90;;;1.00;99.90;;;;;;5033160;28;20199;-66
2021/04/07 06:08:08;;;;;;;1999.90;999.90;;;1.10;99.90;;;;;;5033268;28;20204;-66
2021/04/07 06:10:37;;;;;;;1999.90;999.90;;;1.10;99.90;;;;;;5033376;28;20227;-65
2021/04/07 06:13:03;;;;;;;1999.90;999.90;;;1.10;99.90;;;;;;5033371;28;20187;-66
2021/04/07 06:15:29;;;;;;;1999.90;999.90;;;1.10;99.90;;;;;;5032974;28;20180;-66
2021/04/07 06:18:03;;;;;;;1999.90;999.90;;;1.10;99.90;;;;;;5033102;28;20595;-68
2021/04/07 06:20:33;;;;;;;1999.90;999.90;;;1.10;99.90;;;;;;5033253;28;20801;-69
2021/04/07 06:22:58;;;;;;;1999.90;999.90;;;1.10;99.90;;;;;;5033287;28;20168;-68
2021/04/07 06:25:25;;;;;;;1999.90;999.90;;;1.00;99.90;;;;;;5032841;28;20652;-67
2021/04/07 06:27:53;;;;;;;1999.90;999.90;;;1.00;99.90;;;;;;5033073;28;20250;-69
2021/04/07 06:30:24;;;;;;;1999.90;999.90;;;1.00;99.90;;;;;;5032992;28;20251;-64
2021/04/07 06:32:50;;;;;;;1999.90;999.90;;;1.00;99.90;;;;;;5032858;28;20180;-64
2021/04/07 06:35:15;;;;;;;1999.90;999.90;;;1.00;99.90;;;;;;5032606;28;20172;-65
2021/04/07 06:37:41;;;;;;;1999.90;999.90;;;1.00;99.90;;;;;;5032688;28;20669;-65
2021/04/07 06:40:07;;;;;;;1999.90;999.90;;;1.00;99.90;;;;;;5032786;28;20179;-65
2021/04/07 06:42:33;;;;;;;1999.90;999.90;;;1.00;99.90;;;;;;5032775;28;20623;-65
2021/04/07 06:45:00;;;;;;;1999.90;999.90;;;0.90;99.90;;;;;;5032465;28;20255;-65
2021/04/07 06:47:26;;;;;;;1999.90;999.90;;;0.90;99.90;;;;;;5032602;28;20804;-67
2021/04/07 06:49:53;;;;;;;1999.90;999.90;;;0.90;99.90;;;;;;5032591;28;20752;-66
2021/04/07 06:52:20;;;;;;;1999.90;999.90;;;0.90;99.90;;;;;;5032591;28;20208;-65
2021/04/07 06:54:47;;;;;;;1999.90;999.90;;;0.90;99.90;;;;;;5032289;28;20196;-67
2021/04/07 06:57:15;;;;;;;1999.90;999.90;;;0.90;99.90;;;;;;5032288;28;20208;-65
2021/04/07 06:59:43;;;;;;;1999.90;999.90;;;1.00;99.90;;;;;;5032476;28;20172;-65
2021/04/07 07:02:09;;;;;;;1999.90;999.90;;;1.00;99.90;;;;;;5032214;28;20176;-66
2021/04/07 07:04:35;;;;;;;1999.90;999.90;;;1.00;99.90;;;;;;5032379;28;20290;-65
2021/04/07 07:07:00;;;;;;;1999.90;999.90;;;0.90;99.90;;;;;;5031886;28;20203;-67
2021/04/07 07:09:26;;;;;;;1999.90;999.90;;;0.90;99.90;;;;;;5032270;28;20176;-65
2021/04/07 07:11:52;;;;;;;1999.90;999.90;;;1.00;99.90;;;;;;5032330;28;20414;-66
2021/04/07 07:14:20;;;;;;;1999.90;999.90;;;1.00;99.90;;;;;;5032210;28;20271;-65
2021/04/07 07:16:51;;;;;;;1999.90;999.90;;;1.00;99.90;;;;;;5031765;28;20196;-65
2021/04/07 07:19:28;;;;;;;1999.90;999.90;;;1.00;99.90;;;;;;5032286;28;20668;-66
2021/04/07 07:22:02;;;;;;;1999.90;999.90;;;1.00;99.90;;;;;;5032262;28;20276;-65
2021/04/07 07:24:38;;;;;;;1999.90;999.90;;;1.00;99.90;;;;;;5032055;28;20161;-65
2021/04/07 07:27:09;;;;;;;1999.90;999.90;;;1.00;99.90;;;;;;5031845;28;20234;-69
2021/04/07 07:29:37;;;;;;;1999.90;999.90;;;1.00;99.90;;;;;;5032274;28;20164;-69
2021/04/07 07:32:05;;;;;;;1999.90;999.90;;;0.90;99.90;;;;;;5032247;28;20175;-68
2021/04/07 07:34:32;;;;;;;1999.90;999.90;;;0.90;99.90;;;;;;5032144;28;20255;-68
2021/04/07 07:36:59;;;;;;;1999.90;999.90;;;0.80;99.90;;;;;;5031644;28;20287;-68
2021/04/07 07:39:30;;;;;;;1999.90;999.90;;;0.80;99.90;;;;;;5031924;28;20168;-68
2021/04/07 07:42:01;;;;;;;1999.90;999.90;;;0.80;99.90;;;;;;5032193;28;20225;-68
2021/04/07 07:44:31;;;;;;;1999.90;999.90;;;0.80;99.90;;;;;;5032306;28;20194;-68
2021/04/07 07:47:02;;;;;;;1999.90;999.90;;;0.90;99.90;;;;;;5031508;28;20214;-68
2021/04/07 07:49:28;;;;;;;1999.90;999.90;;;0.90;99.90;;;;;;5031945;28;20271;-67
2021/04/07 07:51:54;;;;;;;1999.90;999.90;;;0.90;99.90;;;;;;5031901;28;20212;-67
2021/04/07 07:54:21;;;;;;;1999.90;999.90;;;0.90;99.90;;;;;;5031771;28;20426;-68
2021/04/07 07:56:49;;;;;;;1999.90;999.90;;;0.90;99.90;;;;;;5031481;28;20434;-65
2021/04/07 07:59:28;;;;;;;1999.90;999.90;;;0.90;99.90;;;;;;5031909;28;20557;-63
2021/04/07 08:01:53;;;;;;;1999.90;999.90;;;0.90;99.90;;;;;;5031803;28;20175;-67
2021/04/07 08:04:19;;;;;;;1999.90;999.90;;;0.90;99.90;;;;;;5031748;28;20176;-64
2021/04/07 08:06:48;;;;;;;1999.90;999.90;;;0.90;99.90;;;;;;5031163;28;20210;-66
2021/04/07 08:09:14;;;;;;;1999.90;999.90;;;0.90;99.90;;;;;;5031778;28;20175;-64
2021/04/07 08:11:46;;;;;;;1999.90;999.90;;;0.90;99.90;;;;;;5031936;28;20204;-65
2021/04/07 08:14:18;;;;;;;1999.90;999.90;;;0.80;99.90;;;;;;5033447;28;20172;-66
2021/04/07 08:16:45;;;;;;;1999.90;999.90;;;0.80;99.90;;;;;;5035087;28;20271;-65
2021/04/07 08:19:13;;;;;;;1999.90;999.90;;;0.80;99.90;;;;;;5035371;28;20176;-63
2021/04/07 08:21:40;;;;;;;1999.90;999.90;;;0.90;99.90;;;;;;5035419;28;20672;-64
2021/04/07 08:24:09;;;;;;;1999.90;999.90;;;0.90;99.90;;;;;;5035357;28;20172;-64
2021/04/07 08:26:39;;;;;;;1999.90;999.90;;;0.90;99.90;;;;;;5035186;28;20196;-63
2021/04/07 08:29:06;;;;;;;1999.90;999.90;;;0.90;99.90;;;;;;5035377;28;20580;-62
2021/04/07 08:31:33;;;;;;;1999.90;999.90;;;1.00;99.90;;;;;;5035260;28;20171;-64
2021/04/07 08:34:02;;;;;;;1999.90;999.90;;;0.90;99.90;;;;;;5035191;28;20171;-62
2021/04/07 08:36:28;;;;;;;1999.90;999.90;;;0.90;99.90;;;;;;5034817;28;20208;-61
2021/04/07 08:39:12;;;;;;;1999.90;999.90;;;0.80;99.90;;;;;;5035091;28;20740;-63
2021/04/07 08:41:39;;;;;;;1999.90;999.90;;;0.80;99.90;;;;;;5035037;28;20263;-63
2021/04/07 08:44:06;;;;;;;1999.90;999.90;;;0.80;99.90;;;;;;5034826;28;20229;-62
2021/04/07 08:46:55;;;;;;;1999.90;999.90;;;0.70;99.90;;;;;;5034189;28;20232;-62
2021/04/07 08:49:41;;;;;;;1999.90;999.90;;;0.80;99.90;;;;;;5034952;28;20161;-60
2021/04/07 08:52:21;;;;;;;1999.90;999.90;;;0.80;99.90;;;;;;5034773;28;20701;-63
2021/04/07 08:54:57;;;;;;;1999.90;999.90;;;0.80;99.90;;;;;;5034734;28;20637;-63
2021/04/07 08:57:36;;;;;;;1999.90;999.90;;;0.80;99.90;;;;;;5034821;28;20208;-62
2021/04/07 09:00:11;;;;;;;1999.90;999.90;;;0.80;99.90;;;;;;5034696;28;20168;-63
2021/04/07 09:02:50;;;;;;;1999.90;999.90;;;0.80;99.90;;;;;;5034637;28;20171;-64
2021/04/07 09:05:17;;;;;;;1999.90;999.90;;;0.80;99.90;;;;;;5034304;28;20544;-63
2021/04/07 09:07:45;;;;;;;1999.90;999.90;;;0.80;99.90;;;;;;5034400;28;20212;-62
2021/04/07 09:10:20;;;;;;;1999.90;999.90;;;0.80;99.90;;;;;;5034644;28;20542;-62
2021/04/07 09:12:48;;;;;;;1999.90;999.90;;;0.80;99.90;;;;;;5034552;28;20705;-65
2021/04/07 09:15:24;;;;;;;1999.90;999.90;;;0.70;99.90;;;;;;5034048;28;20275;-65
2021/04/07 09:17:53;;;;;;;1999.90;999.90;;;0.80;99.90;;;;;;5034187;28;20306;-63
2021/04/07 09:20:38;;;;;;;1999.90;999.90;;;0.90;99.90;;;;;;5034305;28;20206;-66
2021/04/07 09:23:07;;;;;;;1999.90;999.90;;;0.80;99.90;;;;;;5034314;28;20172;-66
2021/04/07 09:25:32;;;;;;;1999.90;999.90;;;0.80;99.90;;;;;;5033957;28;20168;-65
2021/04/07 09:28:08;;;;;;;1999.90;999.90;;;0.80;99.90;;;;;;5033994;28;20196;-66
2021/04/07 09:30:45;;;;;;;1999.90;999.90;;;0.80;99.90;;;;;;5034103;28;20187;-62
2021/04/07 09:33:11;;;;;;;1999.90;999.90;;;0.80;99.90;;;;;;5034066;28;20188;-61
2021/04/07 09:35:38;;;;;;;1999.90;999.90;;;0.90;99.90;;;;;;5033770;28;20179;-62
2021/04/07 09:38:04;;;;;;;1999.90;999.90;;;0.90;99.90;;;;;;5033800;28;20204;-60
2021/04/07 09:40:29;;;;;;;1999.90;999.90;;;0.90;99.90;;;;;;5033915;28;20218;-62
2021/04/07 09:42:56;;;;;;;1999.90;999.90;;;0.90;99.90;;;;;;5034132;28;20650;-61
2021/04/07 09:45:26;;;;;;;1999.90;999.90;;;1.00;99.90;;;;;;5033621;28;20160;-60
2021/04/07 09:47:56;;;;;;;1999.90;999.90;;;1.00;99.90;;;;;;5033763;28;20227;-63
2021/04/07 09:50:28;;;;;;;1999.90;999.90;;;1.00;99.90;;;;;;5033793;28;20604;-62
2021/04/07 09:52:55;;;;;;;1999.90;999.90;;;1.00;99.90;;;;;;5033695;28;20164;-61
2021/04/07 09:55:24;;;;;;;1999.90;999.90;;;1.00;99.90;;;;;;5033552;28;20180;-62
2021/04/07 09:57:56;;;;;;;1999.90;999.90;;;1.00;99.90;;;;;;5033649;28;20716;-62
2021/04/07 10:00:28;;;;;;;1999.90;999.90;;;1.00;99.90;;;;;;5033646;28;20194;-66
2021/04/07 10:02:53;;;;;;;1999.90;999.90;;;1.00;99.90;;;;;;5034497;28;20173;-66
2021/04/07 10:05:30;;;;;;;1999.90;999.90;;;1.00;99.90;;;;;;5033482;28;20567;-66
2021/04/07 10:08:23;;;;;;;1999.90;999.90;;;1.10;99.90;;;;;;5086520;22;20284;-66
2021/04/07 10:10:48;;;;;;;1999.90;999.90;;;1.20;99.90;;;;;;5053448;28;20226;-69
2021/04/07 10:13:15;;;;;;;1999.90;999.90;;;1.20;99.90;;;;;;5053154;28;20172;-70
2021/04/07 10:15:40;;;;;;;1999.90;999.90;;;1.30;99.90;;;;;;5053062;28;20261;-66
2021/04/07 10:18:11;;;;;;;1999.90;999.90;;;1.20;99.90;;;;;;5053057;28;20659;-67
2021/04/07 10:20:37;;;;;;;1999.90;999.90;;;1.30;99.90;;;;;;5052881;28;20247;-69
2021/04/07 10:23:08;;;;;;;1999.90;999.90;;;1.40;99.90;;;;;;5051381;28;20179;-68
2021/04/07 10:25:34;;;;;;;1999.90;999.90;;;1.50;99.90;;;;;;5052497;28;20213;-68
2021/04/07 10:28:00;;;;;;;1999.90;999.90;;;1.60;99.90;;;;;;5052567;28;20257;-69
2021/04/07 10:30:26;;;;;;;1999.90;999.90;;;1.60;99.90;;;;;;5047860;28;20633;-68
2021/04/07 10:32:59;;;;;;;1999.90;999.90;;;1.60;99.90;;;;;;5050336;28;20179;-67
2021/04/07 10:35:29;;;;;;;1999.90;999.90;;;1.70;99.90;;;;;;5050892;28;20183;-67
2021/04/07 10:38:09;;;;;;;1999.90;999.90;;;1.80;99.90;;;;;;5051598;28;20195;-68
2021/04/07 10:40:40;;;;;;;1999.90;999.90;;;1.80;99.90;;;;;;5052939;28;20175;-68
2021/04/07 10:43:15;;;;;;;1999.90;999.90;;;1.80;99.90;;;;;;5051042;28;20187;-68
2021/04/07 10:45:43;;;;;;;1999.90;999.90;;;1.90;99.90;;;;;;5050869;28;20175;-71
2021/04/07 10:48:09;;;;;;;1999.90;999.90;;;2.00;99.90;;;;;;5051489;28;20187;-73
2021/04/07 10:50:38;;;;;;;1999.90;999.90;;;2.10;99.90;;;;;;5051262;28;20648;-70
2021/04/07 10:53:03;;;;;;;1999.90;999.90;;;2.20;99.90;;;;;;5051016;28;20795;-71
2021/04/07 10:55:30;;;;;;;1999.90;999.90;;;2.30;99.90;;;;;;5050802;28;20186;-73
2021/04/07 10:57:58;;;;;;;1999.90;999.90;;;2.50;99.90;;;;;;5051386;28;20256;-72
2021/04/07 11:00:27;;;;;;;1999.90;999.90;;;2.60;99.90;;;;;;5051172;28;20175;-73
2021/04/07 11:02:52;;;;;;;1999.90;999.90;;;2.70;99.90;;;;;;5050614;28;20185;-71
2021/04/07 11:05:20;;;;;;;1999.90;999.90;;;2.90;99.90;;;;;;5050677;28;20191;-71
2021/04/07 11:07:47;;;;;;;1999.90;999.90;;;3.00;99.90;;;;;;5050483;28;20962;-68
2021/04/07 11:10:15;;;;;;;1999.90;999.90;;;3.20;99.90;;;;;;5050977;28;20182;-70
2021/04/07 11:12:43;;;;;;;1999.90;999.90;;;3.30;99.90;;;;;;5050695;28;20242;-69
2021/04/07 11:15:13;;;;;;;1999.90;999.90;;;3.40;99.90;;;;;;5050064;28;20167;-68
2021/04/07 11:17:49;;;;;;;1999.90;999.90;;;3.40;99.90;;;;;;5051049;28;20257;-69
2021/04/07 11:20:15;;;;;;;1999.90;999.90;;;3.50;99.90;;;;;;5050838;28;20174;-69
2021/04/07 11:22:41;;;;;;;1999.90;999.90;;;3.50;99.90;;;;;;5050742;28;20628;-69
2021/04/07 11:25:07;;;;;;;1999.90;999.90;;;3.40;99.90;;;;;;5050769;28;20166;-68
2021/04/07 11:27:36;;;;;;;1999.90;999.90;;;3.40;99.90;;;;;;5050700;28;20191;-66
2021/04/07 11:30:04;;;;;;;1999.90;999.90;;;3.30;99.90;;;;;;5050467;28;20176;-66
2021/04/07 11:32:31;;;;;;;1999.90;999.90;;;3.30;99.90;;;;;;5049929;28;20582;-66
2021/04/07 11:35:06;;;;;;;1999.90;999.90;;;3.40;99.90;;;;;;5050056;28;20202;-68
2021/04/07 11:40:10;;;;;;;1999.90;999.90;;;3.50;99.90;;;;;;5050655;28;20168;-67
2021/04/07 11:42:48;;;;;;;1999.90;999.90;;;3.50;99.90;;;;;;5050335;28;20857;-66
2021/04/07 11:45:15;;;;;;;1999.90;999.90;;;3.60;99.90;;;;;;5050118;28;20155;-67
2021/04/07 11:47:40;;;;;;;1999.90;999.90;;;3.70;99.90;;;;;;5050683;28;20210;-66
2021/04/07 11:50:07;;;;;;;1999.90;999.90;;;3.90;99.90;;;;;;5053669;28;20409;-66
2021/04/07 11:52:33;;;;;;;1999.90;999.90;;;3.90;99.90;;;;;;5053872;28;20668;-67
2021/04/07 11:54:59;;;;;;;1999.90;999.90;;;3.90;99.90;;;;;;5054315;28;20183;-66
2021/04/07 11:57:24;;;;;;;1999.90;999.90;;;3.80;99.90;;;;;;5054152;28;20187;-66
2021/04/07 11:59:54;;;;;;;1999.90;999.90;;;3.70;99.90;;;;;;5053868;28;20175;-66
2021/04/07 12:02:20;;;;;;;1999.90;999.90;;;3.70;99.90;;;;;;5053717;28;20625;-68
2021/04/07 12:04:47;;;;;;;1999.90;999.90;;;3.70;99.90;;;;;;5052573;28;20531;-69
2021/04/07 12:07:13;;;;;;;1999.90;999.90;;;3.70;99.90;;;;;;5053209;28;20265;-66
2021/04/07 12:09:39;;;;;;;1999.90;999.90;;;3.70;99.90;;;;;;5054221;28;20175;-66
2021/04/07 12:12:05;;;;;;;1999.90;999.90;;;3.80;99.90;;;;;;5053555;28;20187;-66